Airfield :
LOGIN :

Register | Disclaimer

   EN    FR    IT 

 










Legend :    VFR   Marginal VFR   IFR   Intensive IFR   Very Intensive IFR
Visi :
Ceiling :
>= 8 km
>= 3000ft
5 to 8 km
1000 to 3000 ft
1500m to 5 km
500 to 1000 ft
800 to 1500m
200 to 500 ft
< 800m
< 200 ft
Symbols :   Thunderstorms  Fog  Heavy snow  Heavy precipitations  Wind > 20 kt
SIGMETs :     Misc.  Thunderstorms  Icing  Turbulence  Mountain Waves  Volcanic Ashes






- Airport Elevation : 614 ft
- IATA code : CRL


EBCI - Charleroi

CURRENT METAR :
  • 261020Z 26004KT 240V300 2000 BR SCT004 OVC006 00/M01 Q1034 NOSIG

EXPIRED METARs :
  • 260950Z 26005KT 220V290 1800 BR SCT004 OVC005 00/M01 Q1033 NOSIG
  • 260920Z 25004KT 220V280 1500 BR SCT003 OVC004 00/M01 Q1033 BECMG BKN007
  • 260850Z 25004KT 1500 BR SCT003 OVC004 M00/M01 Q1033 NOSIG
  • 260820Z 24005KT 1500 BR SCT003 OVC004 M00/M01 Q1033 NOSIG
  • 260750Z 24005KT 1500 BR BKN003 OVC004 M00/M01 Q1033 NOSIG

TAF TAF EBCI
Valid from the 26 at 06:00 until the 27 at 12:00 UTC


260502Z 2606/2712 VRB02KT 1800 BR BKN004
BECMG 2608/2610 4000 BKN007
BECMG 2610/2612 6000 NSW BKN014
PROB40 2614/2624 BKN016
BECMG 2700/2703 23012KT
PROB30 2704/2710 BKN009



MET'MAP, your aeronautical weather chart ! - Copyright ORBIFLY December 2007 - Disclaimer

ORBIFLY MET'MAP TEAM :

Programming & Development : Alexandra Zaïnal
Original concept : Baudouin d'Aumeries
Technical & hardware support : Manuel Goepfert
Assistance : Marc-Olivier Méhu

Contact : metmap@orbifly.com




SOURCES & CREDITS :

   NOAA